Time;durP1;ratioP1;P1;durP2;ratioP2;P2;SDS_P1;SDS_P2;PMS_P1;PMS_P2;Temp;Humidity;BMP_temperature;BMP_pressure;BME280_temperature;BME280_humidity;BME280_pressure;Samples;Min_cycle;Max_cycle;Signal;HPM_P1;HPM_P2
2023/07/21 00:02:08;;;;;;;4.43;1.83;;;23.30;57.80;;;;;;5054176;28;20231;-72
2023/07/21 00:04:35;;;;;;;3.03;1.83;;;23.20;57.20;;;;;;5053579;28;20724;-73
2023/07/21 00:07:03;;;;;;;2.60;2.07;;;23.20;57.00;;;;;;5063383;28;20214;-72
2023/07/21 00:09:29;;;;;;;2.17;1.97;;;23.20;57.20;;;;;;5056256;28;20209;-72
2023/07/21 00:11:56;;;;;;;2.20;2.00;;;23.20;57.40;;;;;;5056967;28;20197;-72
2023/07/21 00:14:24;;;;;;;2.50;2.10;;;23.10;57.80;;;;;;5074151;28;20220;-72
2023/07/21 00:16:53;;;;;;;3.60;2.00;;;23.10;57.40;;;;;;5069427;28;20202;-72
2023/07/21 00:19:21;;;;;;;2.00;1.80;;;23.10;57.60;;;;;;5052832;28;20256;-72
2023/07/21 00:21:49;;;;;;;2.40;2.20;;;23.10;57.70;;;;;;5052394;28;20234;-72
2023/07/21 00:24:18;;;;;;;4.23;2.10;;;23.10;57.90;;;;;;5052410;28;20260;-72
2023/07/21 00:26:46;;;;;;;2.53;1.93;;;23.00;57.90;;;;;;5052314;28;20206;-72
2023/07/21 00:29:13;;;;;;;2.37;1.60;;;23.00;58.00;;;;;;5052453;28;20593;-71
2023/07/21 00:31:46;;;;;;;2.10;1.90;;;22.90;58.10;;;;;;5051892;28;20218;-72
2023/07/21 00:34:13;;;;;;;4.23;2.10;;;22.90;58.20;;;;;;4999667;28;20219;-72
2023/07/21 00:36:41;;;;;;;3.07;2.03;;;22.90;59.10;;;;;;5052207;28;20785;-72
2023/07/21 00:39:10;;;;;;;2.17;1.97;;;22.80;58.40;;;;;;5052214;28;20224;-72
2023/07/21 00:41:36;;;;;;;1.80;1.70;;;22.80;58.50;;;;;;5051366;28;20613;-72
2023/07/21 00:44:06;;;;;;;2.20;2.00;;;22.70;58.50;;;;;;5052085;28;20221;-73
2023/07/21 00:46:33;;;;;;;3.07;2.00;;;22.80;58.70;;;;;;5033636;28;20208;-72
2023/07/21 00:49:00;;;;;;;2.60;2.00;;;22.80;58.90;;;;;;5051538;28;20217;-72
2023/07/21 00:51:27;;;;;;;3.30;2.00;;;22.80;59.10;;;;;;5051025;28;20238;-72
2023/07/21 00:53:56;;;;;;;2.50;2.30;;;22.70;59.10;;;;;;5051619;28;20206;-72
2023/07/21 00:56:23;;;;;;;1.90;1.80;;;22.70;59.20;;;;;;5052034;28;20692;-72
2023/07/21 00:58:50;;;;;;;2.73;2.27;;;22.70;59.20;;;;;;5051236;28;20246;-72
2023/07/21 01:01:17;;;;;;;2.80;2.23;;;22.60;59.40;;;;;;5051366;28;20198;-72
2023/07/21 01:03:44;;;;;;;3.17;2.30;;;22.60;59.30;;;;;;5051581;28;20201;-72
2023/07/21 01:06:12;;;;;;;2.87;2.27;;;22.60;59.10;;;;;;5038131;28;20222;-72
2023/07/21 01:08:40;;;;;;;2.53;1.90;;;22.50;59.20;;;;;;5031776;28;20332;-72
2023/07/21 01:11:10;;;;;;;1.97;1.80;;;22.50;59.40;;;;;;5034321;28;20198;-72
2023/07/21 01:13:39;;;;;;;2.67;2.20;;;22.30;59.40;;;;;;5051581;28;20252;-72
2023/07/21 01:16:08;;;;;;;2.10;1.80;;;22.30;59.40;;;;;;5051911;28;20229;-73
2023/07/21 01:18:36;;;;;;;2.67;2.00;;;22.30;59.70;;;;;;5051493;28;20202;-72
2023/07/21 01:21:05;;;;;;;2.33;2.13;;;22.30;59.90;;;;;;5049730;28;20230;-71
2023/07/21 01:23:39;;;;;;;2.10;1.90;;;22.20;59.80;;;;;;5038598;28;20194;-72
2023/07/21 01:26:11;;;;;;;2.30;2.10;;;22.20;59.90;;;;;;5051433;28;20205;-72
2023/07/21 01:28:40;;;;;;;3.93;1.90;;;22.20;59.80;;;;;;5050705;28;20237;-72
2023/07/21 01:31:08;;;;;;;2.23;1.90;;;22.10;59.90;;;;;;5050698;28;20292;-72
2023/07/21 01:33:35;;;;;;;2.30;2.10;;;22.00;60.10;;;;;;5051592;28;20296;-72
2023/07/21 01:36:04;;;;;;;2.17;1.90;;;21.80;60.10;;;;;;5051207;28;20232;-72
2023/07/21 01:38:32;;;;;;;2.70;2.20;;;21.60;60.50;;;;;;5051076;28;20201;-72
2023/07/21 01:40:59;;;;;;;2.40;2.20;;;21.50;61.00;;;;;;5051195;28;20224;-72
2023/07/21 01:43:27;;;;;;;1.73;1.63;;;21.50;61.10;;;;;;5043831;28;20267;-72
2023/07/21 01:45:55;;;;;;;2.20;2.00;;;21.40;61.30;;;;;;5050848;28;20585;-73
2023/07/21 01:48:24;;;;;;;2.90;2.30;;;21.40;61.40;;;;;;5050010;28;20669;-72
2023/07/21 01:50:52;;;;;;;3.73;2.00;;;21.40;61.60;;;;;;5050488;28;20559;-72
2023/07/21 01:53:23;;;;;;;2.10;1.70;;;21.40;62.40;;;;;;5053253;28;20225;-72
2023/07/21 01:55:57;;;;;;;2.87;2.17;;;21.50;61.60;;;;;;5055371;28;20221;-72
2023/07/21 01:58:27;;;;;;;2.10;1.70;;;21.50;61.20;;;;;;5041816;28;20193;-71
2023/07/21 02:00:55;;;;;;;5.40;1.80;;;21.50;60.60;;;;;;5054810;28;20197;-72
2023/07/21 02:03:22;;;;;;;2.20;2.00;;;21.50;60.60;;;;;;5054447;28;20236;-72
2023/07/21 02:05:49;;;;;;;4.50;1.90;;;21.50;61.60;;;;;;5037708;28;20224;-72
2023/07/21 02:08:17;;;;;;;1.93;1.83;;;21.50;60.80;;;;;;5035240;28;20213;-71
2023/07/21 02:10:44;;;;;;;3.00;2.00;;;21.50;60.70;;;;;;5035832;28;20218;-72
2023/07/21 02:13:11;;;;;;;2.20;2.00;;;21.50;60.70;;;;;;5051260;28;20237;-71
2023/07/21 02:15:39;;;;;;;4.13;2.10;;;21.60;60.80;;;;;;5055201;28;20217;-72
2023/07/21 02:18:06;;;;;;;2.90;2.10;;;21.60;60.80;;;;;;5054857;28;20205;-71
2023/07/21 02:20:33;;;;;;;2.77;2.07;;;21.60;60.90;;;;;;5055014;28;20239;-72
2023/07/21 02:23:01;;;;;;;2.30;1.90;;;21.60;61.10;;;;;;5019014;28;20204;-71
2023/07/21 02:25:27;;;;;;;2.20;1.90;;;21.60;61.20;;;;;;5054956;28;20217;-71
2023/07/21 02:27:54;;;;;;;3.60;2.03;;;21.60;61.10;;;;;;5054365;28;20723;-71
2023/07/21 02:30:21;;;;;;;2.07;1.77;;;21.60;61.20;;;;;;5054923;28;20206;-71
2023/07/21 02:32:48;;;;;;;2.50;2.10;;;21.60;61.40;;;;;;5053886;28;20206;-72
2023/07/21 02:35:15;;;;;;;2.53;2.30;;;21.60;61.40;;;;;;5054713;28;20311;-71
2023/07/21 02:37:42;;;;;;;2.10;1.90;;;21.60;61.30;;;;;;5054483;28;20194;-72
2023/07/21 02:40:10;;;;;;;3.13;2.00;;;21.60;61.30;;;;;;5054841;28;20212;-72
2023/07/21 02:42:37;;;;;;;2.37;1.80;;;21.50;61.30;;;;;;5053522;28;20237;-72
2023/07/21 02:45:04;;;;;;;2.17;1.97;;;21.50;61.40;;;;;;5054345;28;20551;-72
2023/07/21 02:47:31;;;;;;;2.80;1.90;;;21.50;61.60;;;;;;5054262;28;20218;-72
2023/07/21 02:49:59;;;;;;;3.03;1.90;;;21.50;61.50;;;;;;5054446;28;20225;-71
2023/07/21 02:52:27;;;;;;;2.70;2.30;;;21.40;61.40;;;;;;5054011;28;20209;-71
2023/07/21 02:54:54;;;;;;;2.47;2.27;;;21.40;61.30;;;;;;5054415;28;20197;-72
2023/07/21 02:57:21;;;;;;;2.43;1.97;;;21.40;61.30;;;;;;5038699;28;20725;-71
2023/07/21 02:59:48;;;;;;;2.50;2.03;;;21.40;61.30;;;;;;5054310;28;20218;-72
2023/07/21 03:02:15;;;;;;;2.00;1.80;;;21.40;61.40;;;;;;5054329;28;20198;-72
2023/07/21 03:04:42;;;;;;;2.73;1.97;;;21.30;61.20;;;;;;5053274;28;20225;-72
2023/07/21 03:07:11;;;;;;;2.67;2.20;;;21.30;61.40;;;;;;5054148;28;20650;-72
2023/07/21 03:09:38;;;;;;;3.20;2.00;;;21.30;61.50;;;;;;5054497;28;20229;-72
2023/07/21 03:12:06;;;;;;;2.33;1.70;;;21.30;61.90;;;;;;5052987;28;20708;-73
2023/07/21 03:14:33;;;;;;;2.30;2.10;;;21.20;62.00;;;;;;5050832;28;20311;-72
2023/07/21 03:17:00;;;;;;;3.50;2.27;;;21.20;62.40;;;;;;5054031;28;20213;-72
2023/07/21 03:19:29;;;;;;;2.80;2.20;;;21.10;62.80;;;;;;5053843;28;20221;-73
2023/07/21 03:21:57;;;;;;;2.77;2.17;;;21.00;63.20;;;;;;5053901;28;20210;-73
2023/07/21 03:24:25;;;;;;;2.30;2.10;;;20.90;63.10;;;;;;5054474;28;20201;-72
2023/07/21 03:26:52;;;;;;;2.27;1.97;;;20.90;63.40;;;;;;5055545;28;20228;-72
2023/07/21 03:29:19;;;;;;;2.37;2.10;;;20.80;63.50;;;;;;5053980;28;20222;-72
2023/07/21 03:31:46;;;;;;;2.33;2.13;;;20.70;63.70;;;;;;5059723;28;20202;-72
2023/07/21 03:34:13;;;;;;;2.73;2.43;;;20.70;63.60;;;;;;5060378;28;20218;-74
2023/07/21 03:36:40;;;;;;;2.17;1.90;;;20.80;63.60;;;;;;5039761;28;20593;-72
2023/07/21 03:39:07;;;;;;;3.17;2.20;;;20.80;63.70;;;;;;5045249;28;20203;-74
2023/07/21 03:41:35;;;;;;;3.87;2.30;;;20.80;63.50;;;;;;5058287;28;20293;-72
2023/07/21 03:44:02;;;;;;;2.67;2.23;;;20.80;64.40;;;;;;5062634;28;20332;-72
2023/07/21 03:46:29;;;;;;;3.30;2.37;;;20.90;63.60;;;;;;5054406;28;20217;-72
2023/07/21 03:48:56;;;;;;;2.60;2.13;;;20.90;63.70;;;;;;5053487;28;20627;-72
2023/07/21 03:51:22;;;;;;;3.23;2.27;;;21.00;63.20;;;;;;5053796;28;20215;-72
2023/07/21 03:53:49;;;;;;;2.17;1.70;;;21.10;63.30;;;;;;5053019;28;20210;-71
2023/07/21 03:56:16;;;;;;;1.90;1.70;;;21.10;63.30;;;;;;5053456;28;20226;-72
2023/07/21 03:58:44;;;;;;;1.93;1.83;;;21.10;63.30;;;;;;5052055;28;20205;-72
2023/07/21 04:01:11;;;;;;;2.40;2.20;;;21.20;63.40;;;;;;5051247;28;20210;-72
2023/07/21 04:03:38;;;;;;;3.03;2.00;;;21.20;63.40;;;;;;5052249;28;20248;-72
2023/07/21 04:06:07;;;;;;;2.33;1.87;;;21.20;63.40;;;;;;5052763;28;20202;-72
2023/07/21 04:08:34;;;;;;;2.27;2.07;;;21.20;63.10;;;;;;5053034;28;20261;-73
2023/07/21 04:11:00;;;;;;;2.10;1.90;;;21.20;63.40;;;;;;5053297;28;20197;-72
2023/07/21 04:13:27;;;;;;;2.30;2.03;;;21.20;63.40;;;;;;5052583;28;20756;-72
2023/07/21 04:15:56;;;;;;;2.37;1.90;;;21.30;63.50;;;;;;5051063;28;20682;-72
2023/07/21 04:18:24;;;;;;;2.40;2.03;;;21.30;63.10;;;;;;5052763;28;20197;-72
2023/07/21 04:20:50;;;;;;;2.40;1.90;;;21.30;62.80;;;;;;5052803;28;20230;-72
2023/07/21 04:23:17;;;;;;;3.80;2.10;;;21.30;62.90;;;;;;5052392;28;20571;-72
2023/07/21 04:25:45;;;;;;;2.20;2.00;;;21.30;63.10;;;;;;5053268;28;20284;-71
2023/07/21 04:28:12;;;;;;;2.40;2.03;;;21.20;63.20;;;;;;5052385;28;20548;-72
2023/07/21 04:30:39;;;;;;;2.70;2.20;;;21.20;63.80;;;;;;5052456;28;20800;-72
2023/07/21 04:33:07;;;;;;;3.37;2.30;;;21.20;63.40;;;;;;5052493;28;20224;-71
2023/07/21 04:35:34;;;;;;;2.40;2.20;;;21.20;63.40;;;;;;5040948;28;20621;-71
2023/07/21 04:38:01;;;;;;;4.47;1.97;;;21.30;62.70;;;;;;5052419;28;20276;-72
2023/07/21 04:40:28;;;;;;;3.93;2.23;;;21.30;62.90;;;;;;5052229;28;20222;-71
2023/07/21 04:42:55;;;;;;;3.33;2.23;;;21.30;63.50;;;;;;5043322;28;20237;-72
2023/07/21 04:45:21;;;;;;;3.40;2.00;;;21.30;64.30;;;;;;5044708;28;20205;-71
2023/07/21 04:47:49;;;;;;;2.87;2.03;;;21.40;63.60;;;;;;5031737;28;20221;-71
2023/07/21 04:50:17;;;;;;;2.23;2.03;;;21.40;64.20;;;;;;5050744;28;20681;-71
2023/07/21 04:52:44;;;;;;;3.33;2.40;;;21.50;63.70;;;;;;5052061;28;20201;-72
2023/07/21 04:55:11;;;;;;;3.27;2.00;;;21.50;63.20;;;;;;5051667;28;20209;-72
2023/07/21 04:57:38;;;;;;;3.43;2.23;;;21.60;63.40;;;;;;5051378;28;20706;-72
2023/07/21 05:00:11;;;;;;;11.30;4.03;;;21.60;64.00;;;;;;5052077;28;20212;-72
2023/07/21 05:02:38;;;;;;;6.43;3.00;;;21.60;65.50;;;;;;5052013;28;20205;-72
2023/07/21 05:05:05;;;;;;;4.03;2.50;;;21.70;66.80;;;;;;5051849;28;20233;-72
2023/07/21 05:07:33;;;;;;;5.87;2.70;;;21.70;67.50;;;;;;5052030;28;20213;-72
2023/07/21 05:10:00;;;;;;;4.73;2.50;;;21.70;68.10;;;;;;5051717;28;20219;-72
2023/07/21 05:12:27;;;;;;;8.60;3.50;;;21.70;68.50;;;;;;5052028;28;20220;-72
2023/07/21 05:14:54;;;;;;;5.07;2.60;;;21.70;67.50;;;;;;5051395;28;20223;-73
2023/07/21 05:17:21;;;;;;;3.33;2.30;;;21.70;67.50;;;;;;5051535;28;20680;-72
2023/07/21 05:19:47;;;;;;;4.53;3.13;;;21.70;66.60;;;;;;5051763;28;20226;-72
2023/07/21 05:22:15;;;;;;;3.67;2.87;;;21.80;66.80;;;;;;5052333;28;20745;-72
2023/07/21 05:24:43;;;;;;;8.47;3.00;;;21.80;66.00;;;;;;5051498;28;20217;-72
2023/07/21 05:27:10;;;;;;;4.03;2.80;;;21.80;66.30;;;;;;5051555;28;20216;-72
2023/07/21 05:29:37;;;;;;;3.93;2.40;;;21.90;65.90;;;;;;5055478;28;20696;-72
2023/07/21 05:32:05;;;;;;;2.30;2.03;;;21.90;65.30;;;;;;5061921;28;20558;-72
2023/07/21 05:34:33;;;;;;;2.50;2.30;;;21.90;65.10;;;;;;5051047;28;20664;-72
2023/07/21 05:37:00;;;;;;;3.47;2.33;;;21.90;64.20;;;;;;5051611;28;20342;-73
2023/07/21 05:39:28;;;;;;;2.77;2.20;;;21.90;64.70;;;;;;5033391;28;20212;-72
2023/07/21 05:41:57;;;;;;;3.67;2.23;;;21.80;65.60;;;;;;5051542;28;20264;-72
2023/07/21 05:44:24;;;;;;;2.37;2.17;;;21.70;66.10;;;;;;5035114;28;20200;-72
2023/07/21 05:46:51;;;;;;;2.20;2.00;;;21.70;65.90;;;;;;5042195;28;20268;-72
2023/07/21 05:49:18;;;;;;;2.53;1.90;;;21.80;66.00;;;;;;5050484;28;20224;-72
2023/07/21 05:51:45;;;;;;;2.83;2.30;;;21.80;65.00;;;;;;5050813;28;20201;-72
2023/07/21 05:54:12;;;;;;;3.10;2.47;;;21.80;65.00;;;;;;5051524;28;20201;-72
2023/07/21 05:56:39;;;;;;;2.40;2.20;;;21.90;65.10;;;;;;5051093;28;20293;-72
2023/07/21 05:59:07;;;;;;;2.83;2.33;;;22.00;64.90;;;;;;5050886;28;20597;-72
2023/07/21 06:01:36;;;;;;;3.67;2.20;;;22.10;64.50;;;;;;5051154;28;20198;-72
2023/07/21 06:04:03;;;;;;;2.90;2.13;;;22.10;64.10;;;;;;5050055;28;20550;-72
2023/07/21 06:06:31;;;;;;;2.60;2.40;;;22.10;64.20;;;;;;5049068;28;20206;-71
2023/07/21 06:08:58;;;;;;;3.27;2.13;;;22.10;64.40;;;;;;5048184;28;20224;-72
2023/07/21 06:11:26;;;;;;;3.67;2.33;;;22.10;64.80;;;;;;5051310;28;20297;-72
2023/07/21 06:13:53;;;;;;;2.20;2.00;;;22.10;64.80;;;;;;5050784;28;20837;-72
2023/07/21 06:16:23;;;;;;;3.37;2.17;;;22.20;64.70;;;;;;5048276;28;20248;-72
2023/07/21 06:18:51;;;;;;;3.63;2.40;;;22.30;64.60;;;;;;5051009;28;20198;-72
2023/07/21 06:21:19;;;;;;;5.23;2.00;;;22.30;64.50;;;;;;5049827;28;20224;-72
2023/07/21 06:23:46;;;;;;;2.60;2.40;;;22.30;63.30;;;;;;5050375;28;20206;-72
2023/07/21 06:26:13;;;;;;;2.60;2.23;;;22.40;63.60;;;;;;5044642;28;20528;-72
2023/07/21 06:28:40;;;;;;;2.70;2.37;;;22.40;64.30;;;;;;5050969;28;20301;-72
2023/07/21 06:31:09;;;;;;;5.43;2.30;;;22.40;63.50;;;;;;5051084;28;20655;-72
2023/07/21 06:33:37;;;;;;;2.50;2.30;;;22.50;62.10;;;;;;5050883;28;20206;-72
2023/07/21 06:36:04;;;;;;;4.57;2.20;;;22.60;61.30;;;;;;5049805;28;20894;-72
2023/07/21 06:38:31;;;;;;;2.40;2.20;;;22.70;60.60;;;;;;5032548;28;20203;-71
2023/07/21 06:40:58;;;;;;;2.10;1.90;;;22.80;60.00;;;;;;5041629;28;20241;-72
2023/07/21 06:43:25;;;;;;;2.97;2.37;;;22.90;59.70;;;;;;5054204;28;20293;-72
2023/07/21 06:45:51;;;;;;;2.90;2.03;;;22.90;59.20;;;;;;5053925;28;20641;-71
2023/07/21 06:48:18;;;;;;;3.53;2.20;;;23.00;58.70;;;;;;5052752;28;20209;-72
2023/07/21 06:50:48;;;;;;;5.93;2.60;;;23.00;58.30;;;;;;5053902;28;20226;-72
2023/07/21 06:53:17;;;;;;;2.83;2.07;;;23.00;57.60;;;;;;5052861;28;20204;-72
2023/07/21 06:55:44;;;;;;;2.10;1.90;;;23.00;57.20;;;;;;5053970;28;20206;-72
2023/07/21 06:58:11;;;;;;;2.57;1.80;;;23.00;57.10;;;;;;5051793;28;20226;-72
2023/07/21 07:00:38;;;;;;;3.67;1.97;;;23.10;57.00;;;;;;5056093;28;20202;-72
2023/07/21 07:03:05;;;;;;;2.33;1.90;;;23.10;56.60;;;;;;5056922;28;20284;-72
2023/07/21 07:05:31;;;;;;;3.60;2.27;;;23.10;56.20;;;;;;5053260;28;20212;-72
2023/07/21 07:08:00;;;;;;;5.07;1.83;;;23.20;56.70;;;;;;5057238;28;20313;-72
2023/07/21 07:10:26;;;;;;;4.70;2.37;;;23.20;56.00;;;;;;5057770;28;20240;-72
2023/07/21 07:12:53;;;;;;;7.10;2.00;;;23.20;55.90;;;;;;5049788;28;20216;-72
2023/07/21 07:15:20;;;;;;;3.33;1.80;;;23.20;55.90;;;;;;5053217;28;20210;-72
2023/07/21 07:17:47;;;;;;;4.03;2.30;;;23.30;56.00;;;;;;5053388;28;20205;-72
2023/07/21 07:20:14;;;;;;;3.67;1.97;;;23.30;54.80;;;;;;5052147;28;20222;-72
2023/07/21 07:22:41;;;;;;;2.97;1.80;;;23.40;55.20;;;;;;5052258;28;20356;-72
2023/07/21 07:25:10;;;;;;;3.77;2.20;;;23.50;54.80;;;;;;5053524;28;20581;-72
2023/07/21 07:27:37;;;;;;;2.63;2.17;;;23.50;54.40;;;;;;5053006;28;20218;-72
2023/07/21 07:30:05;;;;;;;3.10;2.00;;;23.60;54.40;;;;;;5052846;28;20226;-72
2023/07/21 07:32:32;;;;;;;2.57;1.90;;;23.70;54.20;;;;;;5052846;28;20197;-72
2023/07/21 07:34:59;;;;;;;2.37;2.17;;;23.90;54.40;;;;;;5052468;28;20210;-72
2023/07/21 07:37:27;;;;;;;4.50;2.03;;;24.10;54.10;;;;;;5052931;28;20222;-72
2023/07/21 07:39:55;;;;;;;2.07;1.83;;;24.10;53.40;;;;;;5052987;28;20198;-72
2023/07/21 07:42:24;;;;;;;2.40;1.80;;;24.20;53.70;;;;;;5053003;28;20212;-72
2023/07/21 07:44:55;;;;;;;3.07;2.00;;;24.30;53.40;;;;;;5052414;28;20697;-72
2023/07/21 07:47:22;;;;;;;6.60;2.20;;;24.40;53.00;;;;;;5053063;28;20282;-72
2023/07/21 07:49:49;;;;;;;3.80;1.80;;;24.40;52.30;;;;;;5050878;28;20230;-72
2023/07/21 07:52:17;;;;;;;3.63;1.97;;;24.40;52.70;;;;;;5052165;28;20198;-72
2023/07/21 07:54:44;;;;;;;2.03;1.83;;;24.50;52.20;;;;;;5052502;28;20218;-73
2023/07/21 07:57:11;;;;;;;2.37;1.93;;;24.60;52.50;;;;;;5052057;28;20244;-73
2023/07/21 07:59:39;;;;;;;2.80;1.83;;;24.60;51.80;;;;;;5051855;28;20680;-72
2023/07/21 08:02:06;;;;;;;2.37;1.67;;;24.70;51.90;;;;;;5052256;28;20210;-72
2023/07/21 08:04:33;;;;;;;3.80;2.00;;;24.80;51.30;;;;;;5052447;28;20674;-72
2023/07/21 08:07:00;;;;;;;4.23;2.00;;;24.80;51.60;;;;;;5052788;28;20618;-72
2023/07/21 08:09:27;;;;;;;3.10;2.20;;;24.90;51.40;;;;;;5051668;28;20309;-72
2023/07/21 08:11:54;;;;;;;2.50;1.80;;;25.00;51.50;;;;;;5051801;28;20285;-71
2023/07/21 08:14:21;;;;;;;3.27;2.10;;;25.10;51.30;;;;;;5052021;28;20213;-72
2023/07/21 08:16:49;;;;;;;2.67;1.80;;;25.10;51.10;;;;;;5052284;28;20247;-72
2023/07/21 08:19:16;;;;;;;2.83;1.83;;;25.10;50.30;;;;;;5051680;28;20192;-72
2023/07/21 08:21:43;;;;;;;2.40;2.00;;;25.10;50.50;;;;;;5052012;28;20285;-72
2023/07/21 08:24:10;;;;;;;4.30;1.83;;;25.30;50.60;;;;;;5052002;28;20230;-72
2023/07/21 08:26:37;;;;;;;3.77;2.10;;;25.40;50.20;;;;;;5051601;28;20255;-72
2023/07/21 08:29:07;;;;;;;2.97;1.90;;;25.50;50.50;;;;;;5051818;28;20212;-72
2023/07/21 08:31:34;;;;;;;2.10;1.80;;;25.60;49.70;;;;;;5052125;28;20224;-72
2023/07/21 08:34:02;;;;;;;2.47;2.20;;;25.60;48.60;;;;;;5051252;28;20611;-72
2023/07/21 08:36:29;;;;;;;4.00;1.90;;;25.70;48.80;;;;;;5051944;28;20289;-72
2023/07/21 08:38:55;;;;;;;3.27;2.07;;;25.80;48.80;;;;;;5051618;28;20658;-73
2023/07/21 08:41:23;;;;;;;2.53;1.93;;;26.00;49.00;;;;;;5051949;28;20204;-72
2023/07/21 08:43:51;;;;;;;2.90;2.20;;;26.10;48.70;;;;;;5039976;28;20301;-72
2023/07/21 08:46:17;;;;;;;4.37;2.00;;;26.20;47.90;;;;;;5051805;28;20202;-72
2023/07/21 08:48:45;;;;;;;3.27;1.70;;;26.30;47.00;;;;;;5051311;28;20212;-73
2023/07/21 08:51:13;;;;;;;2.07;1.80;;;26.30;47.00;;;;;;5051624;28;20237;-72
2023/07/21 08:53:40;;;;;;;2.60;1.70;;;26.40;46.10;;;;;;5051096;28;20206;-72
2023/07/21 08:56:09;;;;;;;4.00;1.87;;;26.30;45.30;;;;;;5051153;28;20200;-73
2023/07/21 08:58:36;;;;;;;2.50;1.90;;;26.30;45.40;;;;;;5051295;28;20252;-72
2023/07/21 09:01:05;;;;;;;3.10;2.40;;;26.30;45.70;;;;;;5051169;28;20215;-73
2023/07/21 09:03:32;;;;;;;2.57;2.00;;;26.30;45.90;;;;;;5050936;28;20326;-72
2023/07/21 09:06:00;;;;;;;4.03;2.60;;;26.20;45.90;;;;;;5050661;28;20295;-72
2023/07/21 09:08:30;;;;;;;2.90;1.67;;;26.20;46.70;;;;;;5050646;28;20215;-72
2023/07/21 09:11:00;;;;;;;4.23;2.13;;;26.40;46.80;;;;;;5050920;28;20235;-72
2023/07/21 09:13:27;;;;;;;2.07;1.87;;;26.40;46.10;;;;;;5051733;28;20207;-72
2023/07/21 09:15:56;;;;;;;2.20;2.00;;;26.50;46.90;;;;;;5051102;28;20254;-72
2023/07/21 09:18:28;;;;;;;2.00;1.80;;;26.80;47.00;;;;;;5049318;28;20608;-73
2023/07/21 09:20:55;;;;;;;2.43;2.10;;;27.00;47.30;;;;;;5050914;28;20224;-72
2023/07/21 09:23:23;;;;;;;2.60;2.00;;;27.20;45.60;;;;;;5050068;28;20318;-72
2023/07/21 09:25:52;;;;;;;2.60;1.80;;;27.40;44.90;;;;;;5050203;28;20262;-72
2023/07/21 09:28:20;;;;;;;2.57;1.87;;;27.50;45.50;;;;;;5050835;28;20304;-72
2023/07/21 09:30:51;;;;;;;2.73;1.77;;;27.60;45.20;;;;;;5050595;28;20232;-72
2023/07/21 09:33:23;;;;;;;2.57;1.70;;;27.70;44.80;;;;;;5050854;28;20270;-71
2023/07/21 09:35:51;;;;;;;2.77;1.73;;;27.70;44.70;;;;;;5049460;28;20232;-71
2023/07/21 09:38:18;;;;;;;2.07;1.63;;;27.80;45.20;;;;;;5043480;28;20641;-72
2023/07/21 09:40:45;;;;;;;2.57;1.77;;;28.00;45.70;;;;;;5043233;28;20281;-71
2023/07/21 09:43:14;;;;;;;2.10;1.90;;;28.00;45.40;;;;;;5041942;28;20226;-72
2023/07/21 09:45:45;;;;;;;2.00;1.80;;;28.10;44.50;;;;;;5036553;28;20202;-72
2023/07/21 09:48:12;;;;;;;2.50;2.10;;;28.20;45.00;;;;;;5031245;28;20242;-72
2023/07/21 09:50:40;;;;;;;3.93;2.03;;;28.30;45.50;;;;;;5030661;28;20218;-72
2023/07/21 09:53:10;;;;;;;2.60;2.20;;;28.40;44.80;;;;;;5032157;28;20229;-72
2023/07/21 09:55:41;;;;;;;3.37;2.30;;;28.40;43.50;;;;;;5047052;28;20225;-71
2023/07/21 09:58:12;;;;;;;1.93;1.73;;;28.30;43.40;;;;;;5050910;28;20281;-72
2023/07/21 10:00:41;;;;;;;2.00;1.80;;;28.40;43.80;;;;;;5049407;28;20221;-71
2023/07/21 10:03:09;;;;;;;4.20;2.20;;;28.60;44.30;;;;;;5050774;28;20185;-72
2023/07/21 10:05:38;;;;;;;2.37;1.87;;;28.80;44.50;;;;;;5050233;28;20247;-71
2023/07/21 10:08:09;;;;;;;1.80;1.70;;;28.90;44.10;;;;;;5041566;28;20573;-72
2023/07/21 10:10:37;;;;;;;2.60;1.83;;;29.00;44.50;;;;;;5050553;28;20205;-72
2023/07/21 10:13:07;;;;;;;3.10;1.53;;;29.10;42.30;;;;;;5051313;28;20526;-72
2023/07/21 10:15:35;;;;;;;1.80;1.60;;;29.10;42.60;;;;;;5054356;28;20233;-72
2023/07/21 10:18:08;;;;;;;2.00;1.80;;;29.20;43.50;;;;;;5054842;28;20202;-72
2023/07/21 10:20:48;;;;;;;3.70;1.70;;;29.20;42.30;;;;;;5054572;28;20218;-72
2023/07/21 10:23:16;;;;;;;2.10;1.83;;;29.20;42.80;;;;;;5054447;28;20201;-72
2023/07/21 10:26:00;;;;;;;2.43;1.80;;;29.10;41.10;;;;;;5054668;28;20197;-72
2023/07/21 10:28:33;;;;;;;1.90;1.70;;;29.20;41.50;;;;;;5057862;28;20233;-72
2023/07/21 10:31:38;;;;;;;1.80;1.70;;;29.20;40.50;;;;;;5057619;28;20206;-73
2023/07/21 10:34:09;;;;;;;1.80;1.70;;;29.20;39.90;;;;;;5054337;28;20276;-72
2023/07/21 10:36:44;;;;;;;4.33;1.73;;;29.30;40.90;;;;;;5063591;28;20226;-72
2023/07/21 10:39:16;;;;;;;2.40;1.67;;;29.30;41.40;;;;;;5067408;28;20217;-72
2023/07/21 10:41:43;;;;;;;3.30;1.70;;;29.30;41.70;;;;;;5054377;28;20241;-72
2023/07/21 10:44:11;;;;;;;2.50;1.80;;;29.30;40.60;;;;;;5054143;28;20320;-72
2023/07/21 10:46:39;;;;;;;2.67;1.57;;;29.10;39.90;;;;;;5054212;28;20819;-72
2023/07/21 10:49:09;;;;;;;3.47;1.70;;;29.10;41.00;;;;;;5053555;28;20674;-72
2023/07/21 10:51:37;;;;;;;3.27;1.50;;;29.00;40.30;;;;;;5053326;28;20218;-72
2023/07/21 10:54:04;;;;;;;1.83;1.67;;;28.90;40.30;;;;;;5053169;28;20193;-73
2023/07/21 10:56:35;;;;;;;2.87;1.53;;;28.90;40.20;;;;;;5053891;28;20692;-72
2023/07/21 10:59:03;;;;;;;1.70;1.50;;;28.60;39.80;;;;;;5053590;28;20234;-72
2023/07/21 11:01:31;;;;;;;1.63;1.37;;;28.50;41.50;;;;;;5035495;28;20201;-72
2023/07/21 11:03:58;;;;;;;1.70;1.60;;;28.60;42.40;;;;;;5053494;28;20579;-72
2023/07/21 11:06:27;;;;;;;2.73;1.80;;;28.30;40.30;;;;;;5053212;28;20240;-72
2023/07/21 11:08:53;;;;;;;2.10;1.90;;;28.20;41.20;;;;;;5040086;28;20637;-71
2023/07/21 11:11:21;;;;;;;3.60;1.67;;;28.20;41.80;;;;;;5033634;28;20226;-72
2023/07/21 11:13:48;;;;;;;3.70;1.50;;;28.30;42.30;;;;;;5033366;28;20217;-72
2023/07/21 11:16:15;;;;;;;2.37;1.60;;;28.30;41.70;;;;;;5035881;28;20213;-72
2023/07/21 11:18:42;;;;;;;2.10;1.60;;;28.30;42.10;;;;;;5053970;28;20205;-72
2023/07/21 11:21:10;;;;;;;2.00;1.80;;;28.30;42.60;;;;;;5053284;28;20225;-72
2023/07/21 11:23:40;;;;;;;3.13;1.67;;;28.20;43.00;;;;;;5052597;28;20258;-72
2023/07/21 11:26:09;;;;;;;2.00;1.80;;;28.20;43.10;;;;;;5053168;28;20208;-72
2023/07/21 11:28:39;;;;;;;2.67;1.80;;;28.10;42.20;;;;;;5052936;28;20623;-72
2023/07/21 11:31:11;;;;;;;1.80;1.67;;;28.00;42.10;;;;;;5052611;28;20217;-72
2023/07/21 11:33:46;;;;;;;2.00;1.60;;;27.90;43.00;;;;;;5033597;28;20216;-72
2023/07/21 11:36:16;;;;;;;3.17;1.90;;;27.80;42.10;;;;;;5033524;28;20559;-72
2023/07/21 11:38:57;;;;;;;1.70;1.50;;;27.70;42.50;;;;;;5045550;28;20197;-72
2023/07/21 11:41:49;;;;;;;1.80;1.70;;;27.50;42.80;;;;;;5052855;28;20202;-72
2023/07/21 11:44:21;;;;;;;1.80;1.70;;;27.60;43.60;;;;;;5053294;28;20259;-72
2023/07/21 11:46:56;;;;;;;3.03;1.80;;;27.50;43.20;;;;;;5052772;28;20666;-72
2023/07/21 11:49:25;;;;;;;3.53;2.00;;;27.60;43.40;;;;;;5053040;28;20224;-73
2023/07/21 11:51:53;;;;;;;2.87;1.80;;;27.60;42.90;;;;;;5052156;28;20221;-72
2023/07/21 11:54:23;;;;;;;2.07;1.87;;;27.40;42.60;;;;;;5053200;28;20289;-72
2023/07/21 11:56:50;;;;;;;3.20;1.90;;;27.30;42.90;;;;;;5053107;28;20204;-72
2023/07/21 11:59:17;;;;;;;1.90;1.70;;;27.30;43.40;;;;;;5053011;28;20219;-72
2023/07/21 12:01:45;;;;;;;2.20;1.57;;;27.40;44.50;;;;;;5052050;28;20229;-72
2023/07/21 12:04:12;;;;;;;2.50;1.60;;;27.50;43.50;;;;;;5053107;28;20203;-72
2023/07/21 12:06:40;;;;;;;1.67;1.57;;;27.50;43.70;;;;;;5053268;28;20315;-72
2023/07/21 12:09:09;;;;;;;2.60;1.60;;;27.50;43.60;;;;;;5052911;28;20235;-72
2023/07/21 12:11:38;;;;;;;1.97;1.60;;;27.50;43.30;;;;;;5051657;28;20241;-72
2023/07/21 12:14:05;;;;;;;3.10;1.73;;;27.30;43.30;;;;;;5052124;28;20211;-71
2023/07/21 12:16:34;;;;;;;1.70;1.60;;;27.20;43.60;;;;;;5052540;28;20238;-72
2023/07/21 12:19:03;;;;;;;1.57;1.47;;;27.20;43.60;;;;;;5052533;28;20207;-72
2023/07/21 12:21:30;;;;;;;2.67;1.80;;;27.10;43.70;;;;;;5052185;28;20204;-72
2023/07/21 12:23:57;;;;;;;3.23;1.83;;;27.10;43.90;;;;;;5052406;28;20216;-72
2023/07/21 12:26:25;;;;;;;2.10;1.53;;;27.10;43.60;;;;;;5052240;28;20214;-72
2023/07/21 12:28:53;;;;;;;2.10;1.77;;;26.90;44.00;;;;;;5052148;28;20715;-72
2023/07/21 12:31:21;;;;;;;1.97;1.77;;;26.80;44.70;;;;;;5051955;28;20240;-71
2023/07/21 12:33:51;;;;;;;2.63;1.80;;;26.60;45.50;;;;;;5051903;28;20216;-72
2023/07/21 12:36:18;;;;;;;1.97;1.80;;;26.60;45.10;;;;;;5051256;28;20231;-71
2023/07/21 12:38:46;;;;;;;1.67;1.57;;;26.40;45.00;;;;;;5052369;28;20226;-72
2023/07/21 12:41:13;;;;;;;1.67;1.57;;;26.30;45.30;;;;;;5051672;28;20215;-72
2023/07/21 12:43:40;;;;;;;2.17;1.33;;;26.30;45.30;;;;;;5051556;28;20203;-72
2023/07/21 12:46:12;;;;;;;1.97;1.70;;;26.40;45.90;;;;;;5051864;28;20226;-72
2023/07/21 12:48:38;;;;;;;1.93;1.63;;;26.40;46.50;;;;;;5051515;28;20229;-72
2023/07/21 12:51:05;;;;;;;3.20;1.70;;;26.30;47.40;;;;;;5051840;28;20315;-72
2023/07/21 12:53:32;;;;;;;1.60;1.50;;;26.30;47.50;;;;;;5052200;28;20580;-72